sensor_id;sensor_type;location;lat;lon;timestamp;P1;durP1;ratioP1;P2;durP2;ratioP2
70744;SDS011;59284;31.390;34.904;2022-09-20T00:01:04;22.20;;;13.25;;
70744;SDS011;59284;31.390;34.904;2022-09-20T00:03:40;19.73;;;13.38;;
70744;SDS011;59284;31.390;34.904;2022-09-20T00:06:09;20.70;;;14.18;;
70744;SDS011;59284;31.390;34.904;2022-09-20T00:08:37;23.17;;;14.27;;
70744;SDS011;59284;31.390;34.904;2022-09-20T00:11:04;24.80;;;14.95;;
70744;SDS011;59284;31.390;34.904;2022-09-20T00:13:32;25.10;;;15.00;;
70744;SDS011;59284;31.390;34.904;2022-09-20T00:16:03;25.80;;;13.90;;
70744;SDS011;59284;31.390;34.904;2022-09-20T00:18:30;23.42;;;14.90;;
70744;SDS011;59284;31.390;34.904;2022-09-20T00:20:56;22.13;;;14.13;;
70744;SDS011;59284;31.390;34.904;2022-09-20T00:23:22;24.58;;;14.65;;
70744;SDS011;59284;31.390;34.904;2022-09-20T00:25:54;22.40;;;14.03;;
70744;SDS011;59284;31.390;34.904;2022-09-20T00:28:22;23.02;;;14.23;;
70744;SDS011;59284;31.390;34.904;2022-09-20T00:30:49;24.83;;;14.60;;
70744;SDS011;59284;31.390;34.904;2022-09-20T00:33:16;22.58;;;14.48;;
70744;SDS011;59284;31.390;34.904;2022-09-20T00:35:42;21.23;;;14.43;;
70744;SDS011;59284;31.390;34.904;2022-09-20T00:38:08;22.58;;;15.75;;
70744;SDS011;59284;31.390;34.904;2022-09-20T00:40:36;27.85;;;15.18;;
70744;SDS011;59284;31.390;34.904;2022-09-20T00:43:02;27.97;;;15.10;;
70744;SDS011;59284;31.390;34.904;2022-09-20T00:45:28;22.38;;;14.57;;
70744;SDS011;59284;31.390;34.904;2022-09-20T00:50:36;23.17;;;14.43;;
70744;SDS011;59284;31.390;34.904;2022-09-20T00:53:17;24.13;;;14.27;;
70744;SDS011;59284;31.390;34.904;2022-09-20T00:59:11;23.85;;;13.95;;
70744;SDS011;59284;31.390;34.904;2022-09-20T01:01:33;22.38;;;13.70;;
70744;SDS011;59284;31.390;34.904;2022-09-20T01:04:00;21.63;;;14.70;;
70744;SDS011;59284;31.390;34.904;2022-09-20T01:06:27;21.67;;;13.82;;
70744;SDS011;59284;31.390;34.904;2022-09-20T01:08:55;21.37;;;13.97;;
70744;SDS011;59284;31.390;34.904;2022-09-20T01:11:22;21.30;;;14.40;;
70744;SDS011;59284;31.390;34.904;2022-09-20T01:13:49;20.55;;;13.05;;
70744;SDS011;59284;31.390;34.904;2022-09-20T01:16:15;20.20;;;13.75;;
70744;SDS011;59284;31.390;34.904;2022-09-20T01:18:43;19.90;;;12.97;;
70744;SDS011;59284;31.390;34.904;2022-09-20T01:21:10;22.40;;;14.07;;
70744;SDS011;59284;31.390;34.904;2022-09-20T01:23:43;22.05;;;13.18;;
70744;SDS011;59284;31.390;34.904;2022-09-20T01:26:31;21.05;;;13.48;;
70744;SDS011;59284;31.390;34.904;2022-09-20T01:29:12;24.65;;;13.93;;
70744;SDS011;59284;31.390;34.904;2022-09-20T01:31:50;20.60;;;13.00;;
70744;SDS011;59284;31.390;34.904;2022-09-20T01:34:27;23.42;;;12.82;;
70744;SDS011;59284;31.390;34.904;2022-09-20T01:37:05;20.10;;;12.98;;
70744;SDS011;59284;31.390;34.904;2022-09-20T01:40:05;18.50;;;13.07;;
70744;SDS011;59284;31.390;34.904;2022-09-20T01:42:59;21.00;;;13.38;;
70744;SDS011;59284;31.390;34.904;2022-09-20T01:45:44;23.43;;;12.83;;
70744;SDS011;59284;31.390;34.904;2022-09-20T01:53:37;22.95;;;13.50;;
70744;SDS011;59284;31.390;34.904;2022-09-20T02:04:57;23.92;;;14.13;;
70744;SDS011;59284;31.390;34.904;2022-09-20T02:13:30;25.60;;;13.47;;
70744;SDS011;59284;31.390;34.904;2022-09-20T02:19:29;21.25;;;13.80;;
70744;SDS011;59284;31.390;34.904;2022-09-20T02:22:21;19.67;;;13.05;;
70744;SDS011;59284;31.390;34.904;2022-09-20T02:42:41;23.20;;;14.60;;
70744;SDS011;59284;31.390;34.904;2022-09-20T02:48:27;20.73;;;13.32;;
70744;SDS011;59284;31.390;34.904;2022-09-20T02:51:11;20.63;;;13.02;;
70744;SDS011;59284;31.390;34.904;2022-09-20T02:56:40;21.10;;;13.97;;
70744;SDS011;59284;31.390;34.904;2022-09-20T03:02:06;22.65;;;15.07;;
70744;SDS011;59284;31.390;34.904;2022-09-20T03:07:53;25.67;;;13.75;;
70744;SDS011;59284;31.390;34.904;2022-09-20T03:41:09;25.45;;;15.85;;
70744;SDS011;59284;31.390;34.904;2022-09-20T03:46:26;25.13;;;15.93;;
70744;SDS011;59284;31.390;34.904;2022-09-20T03:48:57;23.10;;;15.53;;
70744;SDS011;59284;31.390;34.904;2022-09-20T04:13:57;26.70;;;16.83;;
70744;SDS011;59284;31.390;34.904;2022-09-20T04:16:38;25.87;;;15.13;;
70744;SDS011;59284;31.390;34.904;2022-09-20T04:19:25;27.15;;;16.65;;
70744;SDS011;59284;31.390;34.904;2022-09-20T04:22:02;28.48;;;15.23;;
70744;SDS011;59284;31.390;34.904;2022-09-20T04:24:43;23.90;;;15.13;;
70744;SDS011;59284;31.390;34.904;2022-09-20T04:27:28;23.55;;;14.27;;
70744;SDS011;59284;31.390;34.904;2022-09-20T04:32:41;20.35;;;13.05;;
70744;SDS011;59284;31.390;34.904;2022-09-20T04:38:15;21.23;;;13.13;;
70744;SDS011;59284;31.390;34.904;2022-09-20T04:47:09;19.45;;;12.35;;
70744;SDS011;59284;31.390;34.904;2022-09-20T04:55:37;15.65;;;10.93;;
70744;SDS011;59284;31.390;34.904;2022-09-20T05:12:31;15.20;;;10.00;;
70744;SDS011;59284;31.390;34.904;2022-09-20T05:15:10;13.02;;;9.93;;
70744;SDS011;59284;31.390;34.904;2022-09-20T05:18:16;15.23;;;10.05;;
70744;SDS011;59284;31.390;34.904;2022-09-20T05:22:13;13.80;;;9.93;;
70744;SDS011;59284;31.390;34.904;2022-09-20T05:27:10;11.07;;;7.80;;
70744;SDS011;59284;31.390;34.904;2022-09-20T05:29:51;11.95;;;7.35;;
70744;SDS011;59284;31.390;34.904;2022-09-20T05:32:46;8.85;;;5.50;;
70744;SDS011;59284;31.390;34.904;2022-09-20T05:38:38;8.07;;;6.50;;
70744;SDS011;59284;31.390;34.904;2022-09-20T05:43:47;7.10;;;5.60;;
70744;SDS011;59284;31.390;34.904;2022-09-20T05:46:25;7.45;;;4.90;;
70744;SDS011;59284;31.390;34.904;2022-09-20T05:49:06;7.50;;;5.85;;
70744;SDS011;59284;31.390;34.904;2022-09-20T05:51:58;10.98;;;6.38;;
70744;SDS011;59284;31.390;34.904;2022-09-20T06:00:19;12.30;;;7.30;;
70744;SDS011;59284;31.390;34.904;2022-09-20T06:02:57;10.85;;;6.68;;
70744;SDS011;59284;31.390;34.904;2022-09-20T06:05:47;9.43;;;6.97;;
70744;SDS011;59284;31.390;34.904;2022-09-20T06:16:05;11.20;;;7.95;;
70744;SDS011;59284;31.390;34.904;2022-09-20T06:23:59;13.45;;;7.63;;
70744;SDS011;59284;31.390;34.904;2022-09-20T06:26:31;14.23;;;8.15;;
70744;SDS011;59284;31.390;34.904;2022-09-20T06:29:05;13.30;;;8.10;;
70744;SDS011;59284;31.390;34.904;2022-09-20T06:31:35;11.02;;;7.68;;
70744;SDS011;59284;31.390;34.904;2022-09-20T06:34:02;12.80;;;7.10;;
70744;SDS011;59284;31.390;34.904;2022-09-20T06:36:45;12.07;;;6.78;;
70744;SDS011;59284;31.390;34.904;2022-09-20T06:39:37;10.32;;;7.05;;
70744;SDS011;59284;31.390;34.904;2022-09-20T06:42:38;13.60;;;6.67;;
70744;SDS011;59284;31.390;34.904;2022-09-20T06:45:04;8.68;;;5.90;;
70744;SDS011;59284;31.390;34.904;2022-09-20T06:47:29;10.45;;;6.40;;
70744;SDS011;59284;31.390;34.904;2022-09-20T06:49:55;8.93;;;5.30;;
70744;SDS011;59284;31.390;34.904;2022-09-20T06:52:23;7.00;;;4.80;;
70744;SDS011;59284;31.390;34.904;2022-09-20T06:54:49;10.38;;;6.25;;
70744;SDS011;59284;31.390;34.904;2022-09-20T06:57:22;7.53;;;4.60;;
70744;SDS011;59284;31.390;34.904;2022-09-20T06:59:55;10.30;;;5.00;;
70744;SDS011;59284;31.390;34.904;2022-09-20T07:02:21;7.22;;;4.78;;
70744;SDS011;59284;31.390;34.904;2022-09-20T07:04:46;8.93;;;5.27;;
70744;SDS011;59284;31.390;34.904;2022-09-20T07:07:14;6.97;;;5.45;;
70744;SDS011;59284;31.390;34.904;2022-09-20T07:09:42;10.33;;;5.20;;
70744;SDS011;59284;31.390;34.904;2022-09-20T07:12:08;7.05;;;5.25;;
70744;SDS011;59284;31.390;34.904;2022-09-20T07:14:35;7.68;;;5.07;;
70744;SDS011;59284;31.390;34.904;2022-09-20T07:17:01;7.45;;;4.35;;
70744;SDS011;59284;31.390;34.904;2022-09-20T07:19:28;6.13;;;4.10;;
70744;SDS011;59284;31.390;34.904;2022-09-20T07:21:54;6.60;;;4.68;;
70744;SDS011;59284;31.390;34.904;2022-09-20T07:24:19;9.82;;;5.00;;
70744;SDS011;59284;31.390;34.904;2022-09-20T07:26:58;5.27;;;4.00;;
70744;SDS011;59284;31.390;34.904;2022-09-20T07:29:26;8.95;;;3.80;;
70744;SDS011;59284;31.390;34.904;2022-09-20T07:31:52;5.82;;;3.92;;
70744;SDS011;59284;31.390;34.904;2022-09-20T07:34:18;4.80;;;3.70;;
70744;SDS011;59284;31.390;34.904;2022-09-20T07:36:47;8.30;;;3.83;;
70744;SDS011;59284;31.390;34.904;2022-09-20T07:39:15;5.75;;;3.50;;
70744;SDS011;59284;31.390;34.904;2022-09-20T07:41:42;7.07;;;4.07;;
70744;SDS011;59284;31.390;34.904;2022-09-20T07:44:12;7.57;;;4.10;;
70744;SDS011;59284;31.390;34.904;2022-09-20T07:46:52;7.18;;;4.53;;
70744;SDS011;59284;31.390;34.904;2022-09-20T07:49:21;6.33;;;3.90;;
70744;SDS011;59284;31.390;34.904;2022-09-20T07:51:48;4.88;;;3.75;;
70744;SDS011;59284;31.390;34.904;2022-09-20T07:54:14;7.25;;;4.20;;
70744;SDS011;59284;31.390;34.904;2022-09-20T07:56:41;10.98;;;3.90;;
70744;SDS011;59284;31.390;34.904;2022-09-20T07:59:09;7.38;;;4.00;;
70744;SDS011;59284;31.390;34.904;2022-09-20T08:01:35;7.83;;;3.70;;
70744;SDS011;59284;31.390;34.904;2022-09-20T08:04:03;5.88;;;3.90;;
70744;SDS011;59284;31.390;34.904;2022-09-20T08:06:36;5.72;;;3.70;;
70744;SDS011;59284;31.390;34.904;2022-09-20T08:09:03;9.70;;;3.90;;
70744;SDS011;59284;31.390;34.904;2022-09-20T08:11:29;6.43;;;3.78;;
70744;SDS011;59284;31.390;34.904;2022-09-20T08:13:55;7.40;;;3.77;;
70744;SDS011;59284;31.390;34.904;2022-09-20T08:16:24;6.93;;;3.53;;
70744;SDS011;59284;31.390;34.904;2022-09-20T08:18:57;8.85;;;3.63;;
70744;SDS011;59284;31.390;34.904;2022-09-20T08:21:26;6.55;;;3.33;;
70744;SDS011;59284;31.390;34.904;2022-09-20T08:23:55;6.17;;;3.40;;
70744;SDS011;59284;31.390;34.904;2022-09-20T08:26:22;5.30;;;2.72;;
70744;SDS011;59284;31.390;34.904;2022-09-20T08:28:52;6.88;;;3.45;;
70744;SDS011;59284;31.390;34.904;2022-09-20T08:31:20;5.35;;;3.42;;
70744;SDS011;59284;31.390;34.904;2022-09-20T08:33:48;8.55;;;3.53;;
70744;SDS011;59284;31.390;34.904;2022-09-20T08:36:16;7.83;;;3.77;;
70744;SDS011;59284;31.390;34.904;2022-09-20T08:38:44;9.50;;;3.65;;
70744;SDS011;59284;31.390;34.904;2022-09-20T08:41:11;4.97;;;3.50;;
70744;SDS011;59284;31.390;34.904;2022-09-20T08:43:53;4.47;;;3.25;;
70744;SDS011;59284;31.390;34.904;2022-09-20T08:46:25;6.20;;;3.42;;
70744;SDS011;59284;31.390;34.904;2022-09-20T08:48:54;6.80;;;3.30;;
70744;SDS011;59284;31.390;34.904;2022-09-20T08:51:21;5.80;;;3.50;;
70744;SDS011;59284;31.390;34.904;2022-09-20T08:53:51;6.15;;;3.50;;
70744;SDS011;59284;31.390;34.904;2022-09-20T08:56:19;7.95;;;3.70;;
70744;SDS011;59284;31.390;34.904;2022-09-20T08:58:46;5.30;;;3.20;;
70744;SDS011;59284;31.390;34.904;2022-09-20T09:01:23;14.00;;;3.90;;
70744;SDS011;59284;31.390;34.904;2022-09-20T09:04:05;7.00;;;3.60;;
70744;SDS011;59284;31.390;34.904;2022-09-20T09:06:37;9.93;;;3.50;;
70744;SDS011;59284;31.390;34.904;2022-09-20T09:09:04;6.63;;;3.40;;
70744;SDS011;59284;31.390;34.904;2022-09-20T09:11:31;6.13;;;3.30;;
70744;SDS011;59284;31.390;34.904;2022-09-20T09:14:06;6.87;;;3.57;;
70744;SDS011;59284;31.390;34.904;2022-09-20T09:16:55;9.75;;;4.28;;
70744;SDS011;59284;31.390;34.904;2022-09-20T09:19:24;5.90;;;4.00;;
70744;SDS011;59284;31.390;34.904;2022-09-20T09:21:56;6.20;;;3.03;;
70744;SDS011;59284;31.390;34.904;2022-09-20T09:24:26;7.22;;;3.60;;
70744;SDS011;59284;31.390;34.904;2022-09-20T09:27:06;5.53;;;3.33;;
70744;SDS011;59284;31.390;34.904;2022-09-20T09:29:50;9.30;;;3.45;;
70744;SDS011;59284;31.390;34.904;2022-09-20T09:32:19;4.75;;;3.17;;
70744;SDS011;59284;31.390;34.904;2022-09-20T09:34:45;7.10;;;3.10;;
70744;SDS011;59284;31.390;34.904;2022-09-20T09:37:21;8.02;;;2.83;;
70744;SDS011;59284;31.390;34.904;2022-09-20T09:40:13;6.00;;;3.25;;
70744;SDS011;59284;31.390;34.904;2022-09-20T09:42:53;4.77;;;3.43;;
70744;SDS011;59284;31.390;34.904;2022-09-20T09:45:27;5.45;;;3.25;;
70744;SDS011;59284;31.390;34.904;2022-09-20T09:48:16;5.47;;;3.55;;
70744;SDS011;59284;31.390;34.904;2022-09-20T09:50:45;5.85;;;3.40;;
70744;SDS011;59284;31.390;34.904;2022-09-20T09:53:13;9.70;;;3.60;;
70744;SDS011;59284;31.390;34.904;2022-09-20T09:55:51;4.93;;;3.20;;
70744;SDS011;59284;31.390;34.904;2022-09-20T09:59:05;4.82;;;3.15;;
70744;SDS011;59284;31.390;34.904;2022-09-20T10:01:11;5.90;;;3.25;;
70744;SDS011;59284;31.390;34.904;2022-09-20T10:03:51;9.68;;;3.20;;
70744;SDS011;59284;31.390;34.904;2022-09-20T10:22:19;6.90;;;3.33;;
70744;SDS011;59284;31.390;34.904;2022-09-20T10:25:01;5.50;;;2.67;;
70744;SDS011;59284;31.390;34.904;2022-09-20T10:36:34;5.83;;;2.93;;
70744;SDS011;59284;31.390;34.904;2022-09-20T10:45:09;6.25;;;3.10;;
70744;SDS011;59284;31.390;34.904;2022-09-20T10:47:37;12.18;;;3.35;;
70744;SDS011;59284;31.390;34.904;2022-09-20T10:56:11;10.00;;;3.50;;
70744;SDS011;59284;31.390;34.904;2022-09-20T11:07:49;4.63;;;3.30;;
70744;SDS011;59284;31.390;34.904;2022-09-20T11:10:39;11.43;;;4.13;;
70744;SDS011;59284;31.390;34.904;2022-09-20T11:13:10;9.68;;;4.20;;
70744;SDS011;59284;31.390;34.904;2022-09-20T11:16:19;7.35;;;4.28;;
70744;SDS011;59284;31.390;34.904;2022-09-20T11:21:33;12.65;;;4.00;;
70744;SDS011;59284;31.390;34.904;2022-09-20T11:26:45;12.45;;;4.35;;
70744;SDS011;59284;31.390;34.904;2022-09-20T11:29:20;9.23;;;4.20;;
70744;SDS011;59284;31.390;34.904;2022-09-20T11:31:47;8.73;;;4.47;;
70744;SDS011;59284;31.390;34.904;2022-09-20T11:34:20;11.07;;;3.95;;
70744;SDS011;59284;31.390;34.904;2022-09-20T11:36:53;7.97;;;4.25;;
70744;SDS011;59284;31.390;34.904;2022-09-20T11:42:21;9.93;;;4.10;;
70744;SDS011;59284;31.390;34.904;2022-09-20T11:44:54;7.83;;;3.23;;
70744;SDS011;59284;31.390;34.904;2022-09-20T11:52:58;12.43;;;4.20;;
70744;SDS011;59284;31.390;34.904;2022-09-20T11:58:46;11.93;;;3.80;;
70744;SDS011;59284;31.390;34.904;2022-09-20T12:01:15;10.35;;;4.05;;
70744;SDS011;59284;31.390;34.904;2022-09-20T12:04:05;7.70;;;3.55;;
70744;SDS011;59284;31.390;34.904;2022-09-20T12:06:43;6.60;;;3.90;;
70744;SDS011;59284;31.390;34.904;2022-09-20T12:09:28;7.05;;;3.95;;
70744;SDS011;59284;31.390;34.904;2022-09-20T12:11:57;10.40;;;3.80;;
70744;SDS011;59284;31.390;34.904;2022-09-20T12:14:25;8.48;;;3.97;;
70744;SDS011;59284;31.390;34.904;2022-09-20T12:16:53;5.93;;;3.42;;
70744;SDS011;59284;31.390;34.904;2022-09-20T12:24:25;9.27;;;3.90;;
70744;SDS011;59284;31.390;34.904;2022-09-20T12:27:18;7.47;;;3.50;;
70744;SDS011;59284;31.390;34.904;2022-09-20T12:30:36;11.57;;;3.90;;
70744;SDS011;59284;31.390;34.904;2022-09-20T12:32:55;10.83;;;3.47;;
70744;SDS011;59284;31.390;34.904;2022-09-20T12:41:01;6.53;;;3.97;;
70744;SDS011;59284;31.390;34.904;2022-09-20T12:43:33;6.05;;;3.17;;
70744;SDS011;59284;31.390;34.904;2022-09-20T12:46:03;9.93;;;3.80;;
70744;SDS011;59284;31.390;34.904;2022-09-20T12:48:31;11.43;;;3.72;;
70744;SDS011;59284;31.390;34.904;2022-09-20T12:51:15;6.30;;;3.30;;
70744;SDS011;59284;31.390;34.904;2022-09-20T12:54:05;7.90;;;3.42;;
70744;SDS011;59284;31.390;34.904;2022-09-20T12:59:17;7.97;;;3.17;;
70744;SDS011;59284;31.390;34.904;2022-09-20T13:05:29;9.02;;;3.38;;
70744;SDS011;59284;31.390;34.904;2022-09-20T13:10:49;7.32;;;3.53;;
70744;SDS011;59284;31.390;34.904;2022-09-20T13:13:38;7.17;;;3.40;;
70744;SDS011;59284;31.390;34.904;2022-09-20T13:16:25;10.15;;;3.78;;
70744;SDS011;59284;31.390;34.904;2022-09-20T13:19:22;9.57;;;4.00;;
70744;SDS011;59284;31.390;34.904;2022-09-20T13:24:23;8.45;;;3.55;;
70744;SDS011;59284;31.390;34.904;2022-09-20T13:26:51;7.13;;;3.37;;
70744;SDS011;59284;31.390;34.904;2022-09-20T13:29:38;8.43;;;3.55;;
70744;SDS011;59284;31.390;34.904;2022-09-20T13:32:15;8.85;;;3.47;;
70744;SDS011;59284;31.390;34.904;2022-09-20T13:34:42;7.68;;;3.60;;
70744;SDS011;59284;31.390;34.904;2022-09-20T13:37:17;9.93;;;3.95;;
70744;SDS011;59284;31.390;34.904;2022-09-20T13:39:45;8.47;;;3.50;;
70744;SDS011;59284;31.390;34.904;2022-09-20T13:42:13;8.70;;;3.83;;
70744;SDS011;59284;31.390;34.904;2022-09-20T13:44:47;9.23;;;3.38;;
70744;SDS011;59284;31.390;34.904;2022-09-20T13:47:23;6.68;;;2.90;;
70744;SDS011;59284;31.390;34.904;2022-09-20T13:49:51;7.70;;;3.53;;
70744;SDS011;59284;31.390;34.904;2022-09-20T13:52:24;7.83;;;3.40;;
70744;SDS011;59284;31.390;34.904;2022-09-20T13:54:51;7.60;;;3.70;;
70744;SDS011;59284;31.390;34.904;2022-09-20T13:57:20;8.38;;;3.90;;
70744;SDS011;59284;31.390;34.904;2022-09-20T13:59:52;16.85;;;3.63;;
70744;SDS011;59284;31.390;34.904;2022-09-20T14:04:55;5.93;;;3.03;;
70744;SDS011;59284;31.390;34.904;2022-09-20T14:07:24;10.80;;;3.55;;
70744;SDS011;59284;31.390;34.904;2022-09-20T14:09:54;12.13;;;3.17;;
70744;SDS011;59284;31.390;34.904;2022-09-20T14:12:23;6.90;;;3.05;;
70744;SDS011;59284;31.390;34.904;2022-09-20T14:15:14;9.30;;;3.13;;
70744;SDS011;59284;31.390;34.904;2022-09-20T14:17:42;6.30;;;3.53;;
70744;SDS011;59284;31.390;34.904;2022-09-20T14:20:12;8.52;;;3.40;;
70744;SDS011;59284;31.390;34.904;2022-09-20T14:22:42;11.25;;;3.50;;
70744;SDS011;59284;31.390;34.904;2022-09-20T14:25:19;11.02;;;3.03;;
70744;SDS011;59284;31.390;34.904;2022-09-20T14:28:04;11.48;;;4.05;;
70744;SDS011;59284;31.390;34.904;2022-09-20T14:31:05;11.43;;;3.60;;
70744;SDS011;59284;31.390;34.904;2022-09-20T14:33:40;7.55;;;3.70;;
70744;SDS011;59284;31.390;34.904;2022-09-20T14:36:21;7.78;;;3.65;;
70744;SDS011;59284;31.390;34.904;2022-09-20T14:38:53;8.32;;;3.65;;
70744;SDS011;59284;31.390;34.904;2022-09-20T14:41:35;6.68;;;3.85;;
70744;SDS011;59284;31.390;34.904;2022-09-20T14:44:04;9.30;;;4.17;;
70744;SDS011;59284;31.390;34.904;2022-09-20T14:46:40;12.45;;;3.60;;
70744;SDS011;59284;31.390;34.904;2022-09-20T14:51:51;10.95;;;3.70;;
70744;SDS011;59284;31.390;34.904;2022-09-20T14:54:26;10.30;;;3.67;;
70744;SDS011;59284;31.390;34.904;2022-09-20T14:56:54;11.70;;;3.53;;
70744;SDS011;59284;31.390;34.904;2022-09-20T14:59:53;8.52;;;3.90;;
70744;SDS011;59284;31.390;34.904;2022-09-20T15:02:20;7.18;;;3.90;;
70744;SDS011;59284;31.390;34.904;2022-09-20T15:05:25;11.10;;;3.70;;
70744;SDS011;59284;31.390;34.904;2022-09-20T15:07:56;11.15;;;3.53;;
70744;SDS011;59284;31.390;34.904;2022-09-20T15:10:24;7.93;;;3.67;;
70744;SDS011;59284;31.390;34.904;2022-09-20T15:12:51;9.48;;;3.97;;
70744;SDS011;59284;31.390;34.904;2022-09-20T15:15:18;9.73;;;3.47;;
70744;SDS011;59284;31.390;34.904;2022-09-20T15:17:48;9.13;;;3.33;;
70744;SDS011;59284;31.390;34.904;2022-09-20T15:20:22;6.33;;;3.60;;
70744;SDS011;59284;31.390;34.904;2022-09-20T15:22:51;8.85;;;3.40;;
70744;SDS011;59284;31.390;34.904;2022-09-20T15:25:19;9.52;;;3.47;;
70744;SDS011;59284;31.390;34.904;2022-09-20T15:27:48;7.80;;;3.58;;
70744;SDS011;59284;31.390;34.904;2022-09-20T15:30:18;7.90;;;3.90;;
70744;SDS011;59284;31.390;34.904;2022-09-20T15:32:53;6.80;;;3.40;;
70744;SDS011;59284;31.390;34.904;2022-09-20T15:35:29;12.80;;;3.80;;
70744;SDS011;59284;31.390;34.904;2022-09-20T15:37:58;8.63;;;3.80;;
70744;SDS011;59284;31.390;34.904;2022-09-20T15:40:25;9.32;;;3.90;;
70744;SDS011;59284;31.390;34.904;2022-09-20T15:42:55;7.30;;;3.45;;
70744;SDS011;59284;31.390;34.904;2022-09-20T15:45:26;9.77;;;4.00;;
70744;SDS011;59284;31.390;34.904;2022-09-20T15:48:02;10.88;;;3.97;;
70744;SDS011;59284;31.390;34.904;2022-09-20T15:50:29;11.95;;;4.15;;
70744;SDS011;59284;31.390;34.904;2022-09-20T15:52:55;11.90;;;4.00;;
70744;SDS011;59284;31.390;34.904;2022-09-20T15:55:24;8.95;;;4.00;;
70744;SDS011;59284;31.390;34.904;2022-09-20T15:57:50;7.57;;;4.22;;
70744;SDS011;59284;31.390;34.904;2022-09-20T16:00:20;7.00;;;3.88;;
70744;SDS011;59284;31.390;34.904;2022-09-20T16:02:51;5.80;;;3.57;;
70744;SDS011;59284;31.390;34.904;2022-09-20T16:05:17;12.18;;;4.40;;
70744;SDS011;59284;31.390;34.904;2022-09-20T16:07:44;8.23;;;4.07;;
70744;SDS011;59284;31.390;34.904;2022-09-20T16:10:19;8.05;;;3.97;;
70744;SDS011;59284;31.390;34.904;2022-09-20T16:12:55;8.17;;;3.70;;
70744;SDS011;59284;31.390;34.904;2022-09-20T16:15:24;8.73;;;3.65;;
70744;SDS011;59284;31.390;34.904;2022-09-20T16:17:51;9.90;;;3.05;;
70744;SDS011;59284;31.390;34.904;2022-09-20T16:20:46;10.77;;;3.70;;
70744;SDS011;59284;31.390;34.904;2022-09-20T16:23:14;7.88;;;3.63;;
70744;SDS011;59284;31.390;34.904;2022-09-20T16:25:39;8.73;;;3.80;;
70744;SDS011;59284;31.390;34.904;2022-09-20T16:28:05;6.23;;;4.17;;
70744;SDS011;59284;31.390;34.904;2022-09-20T16:30:31;5.40;;;3.00;;
70744;SDS011;59284;31.390;34.904;2022-09-20T16:32:59;7.93;;;3.20;;
70744;SDS011;59284;31.390;34.904;2022-09-20T16:35:30;8.20;;;3.20;;
70744;SDS011;59284;31.390;34.904;2022-09-20T16:37:58;5.75;;;2.90;;
70744;SDS011;59284;31.390;34.904;2022-09-20T16:40:25;8.77;;;3.28;;
70744;SDS011;59284;31.390;34.904;2022-09-20T16:42:52;8.90;;;3.35;;
70744;SDS011;59284;31.390;34.904;2022-09-20T16:45:24;7.68;;;3.70;;
70744;SDS011;59284;31.390;34.904;2022-09-20T16:48:00;9.37;;;3.30;;
70744;SDS011;59284;31.390;34.904;2022-09-20T16:50:29;9.60;;;3.33;;
70744;SDS011;59284;31.390;34.904;2022-09-20T16:52:55;7.30;;;3.05;;
70744;SDS011;59284;31.390;34.904;2022-09-20T16:55:23;9.07;;;3.55;;
70744;SDS011;59284;31.390;34.904;2022-09-20T16:57:49;7.30;;;3.63;;
70744;SDS011;59284;31.390;34.904;2022-09-20T17:00:47;7.38;;;3.28;;
70744;SDS011;59284;31.390;34.904;2022-09-20T17:03:15;11.77;;;3.50;;
70744;SDS011;59284;31.390;34.904;2022-09-20T17:05:41;9.50;;;3.73;;
70744;SDS011;59284;31.390;34.904;2022-09-20T17:08:07;7.05;;;3.58;;
70744;SDS011;59284;31.390;34.904;2022-09-20T17:10:35;6.72;;;3.20;;
70744;SDS011;59284;31.390;34.904;2022-09-20T17:15:44;6.30;;;3.25;;
70744;SDS011;59284;31.390;34.904;2022-09-20T17:18:15;10.20;;;3.67;;
70744;SDS011;59284;31.390;34.904;2022-09-20T17:20:40;6.65;;;3.58;;
70744;SDS011;59284;31.390;34.904;2022-09-20T17:23:12;11.93;;;3.93;;
70744;SDS011;59284;31.390;34.904;2022-09-20T17:25:38;6.82;;;3.50;;
70744;SDS011;59284;31.390;34.904;2022-09-20T17:28:08;6.80;;;3.40;;
70744;SDS011;59284;31.390;34.904;2022-09-20T17:30:49;8.35;;;3.25;;
70744;SDS011;59284;31.390;34.904;2022-09-20T17:33:16;14.10;;;4.10;;
70744;SDS011;59284;31.390;34.904;2022-09-20T17:35:52;6.05;;;3.45;;
70744;SDS011;59284;31.390;34.904;2022-09-20T17:38:18;7.88;;;3.75;;
70744;SDS011;59284;31.390;34.904;2022-09-20T17:40:45;6.20;;;3.60;;
70744;SDS011;59284;31.390;34.904;2022-09-20T17:43:10;11.83;;;3.50;;
70744;SDS011;59284;31.390;34.904;2022-09-20T17:45:41;8.23;;;4.20;;
70744;SDS011;59284;31.390;34.904;2022-09-20T17:48:10;9.60;;;3.78;;
70744;SDS011;59284;31.390;34.904;2022-09-20T17:50:36;8.57;;;3.97;;
70744;SDS011;59284;31.390;34.904;2022-09-20T17:53:10;8.05;;;3.75;;
70744;SDS011;59284;31.390;34.904;2022-09-20T17:55:36;9.57;;;3.90;;
70744;SDS011;59284;31.390;34.904;2022-09-20T17:58:03;10.37;;;3.90;;
70744;SDS011;59284;31.390;34.904;2022-09-20T18:00:29;12.65;;;4.25;;
70744;SDS011;59284;31.390;34.904;2022-09-20T18:02:55;9.52;;;4.30;;
70744;SDS011;59284;31.390;34.904;2022-09-20T18:05:20;7.70;;;4.00;;
70744;SDS011;59284;31.390;34.904;2022-09-20T18:07:50;10.60;;;4.00;;
70744;SDS011;59284;31.390;34.904;2022-09-20T18:10:40;9.00;;;4.50;;
70744;SDS011;59284;31.390;34.904;2022-09-20T18:13:27;14.27;;;4.30;;
70744;SDS011;59284;31.390;34.904;2022-09-20T18:15:54;11.43;;;4.22;;
70744;SDS011;59284;31.390;34.904;2022-09-20T18:18:23;13.57;;;3.80;;
70744;SDS011;59284;31.390;34.904;2022-09-20T18:20:55;8.13;;;3.92;;
70744;SDS011;59284;31.390;34.904;2022-09-20T18:23:20;11.00;;;4.40;;
70744;SDS011;59284;31.390;34.904;2022-09-20T18:25:46;9.88;;;3.72;;
70744;SDS011;59284;31.390;34.904;2022-09-20T18:28:31;13.57;;;4.80;;
70744;SDS011;59284;31.390;34.904;2022-09-20T18:31:07;10.80;;;4.27;;
70744;SDS011;59284;31.390;34.904;2022-09-20T18:33:46;9.00;;;4.07;;
70744;SDS011;59284;31.390;34.904;2022-09-20T18:36:25;12.75;;;3.88;;
70744;SDS011;59284;31.390;34.904;2022-09-20T18:39:10;9.73;;;4.40;;
70744;SDS011;59284;31.390;34.904;2022-09-20T18:41:39;13.38;;;4.53;;
70744;SDS011;59284;31.390;34.904;2022-09-20T18:44:13;8.60;;;4.20;;
70744;SDS011;59284;31.390;34.904;2022-09-20T18:47:10;15.25;;;4.57;;
70744;SDS011;59284;31.390;34.904;2022-09-20T18:49:40;11.00;;;4.18;;
70744;SDS011;59284;31.390;34.904;2022-09-20T18:52:07;9.25;;;4.00;;
70744;SDS011;59284;31.390;34.904;2022-09-20T18:54:34;9.20;;;4.30;;
70744;SDS011;59284;31.390;34.904;2022-09-20T18:57:01;6.50;;;3.97;;
70744;SDS011;59284;31.390;34.904;2022-09-20T18:59:46;11.57;;;3.90;;
70744;SDS011;59284;31.390;34.904;2022-09-20T19:05:25;13.50;;;4.50;;
70744;SDS011;59284;31.390;34.904;2022-09-20T19:08:22;15.35;;;4.50;;
70744;SDS011;59284;31.390;34.904;2022-09-20T19:11:25;18.20;;;4.57;;
70744;SDS011;59284;31.390;34.904;2022-09-20T19:14:16;9.70;;;4.18;;
70744;SDS011;59284;31.390;34.904;2022-09-20T19:16:52;12.02;;;4.90;;
70744;SDS011;59284;31.390;34.904;2022-09-20T19:25:29;7.93;;;3.40;;
70744;SDS011;59284;31.390;34.904;2022-09-20T19:28:22;9.60;;;3.75;;
70744;SDS011;59284;31.390;34.904;2022-09-20T19:31:22;7.97;;;4.15;;
70744;SDS011;59284;31.390;34.904;2022-09-20T19:34:23;6.82;;;3.63;;
70744;SDS011;59284;31.390;34.904;2022-09-20T19:39:37;11.00;;;4.47;;
70744;SDS011;59284;31.390;34.904;2022-09-20T19:49:14;9.27;;;4.22;;
70744;SDS011;59284;31.390;34.904;2022-09-20T19:52:23;7.25;;;3.90;;